Time;durP1;ratioP1;P1;durP2;ratioP2;P2;SDS_P1;SDS_P2;PMS_P1;PMS_P2;Temp;Humidity;BMP_temperature;BMP_pressure;BME280_temperature;BME280_humidity;BME280_pressure;Samples;Min_cycle;Max_cycle;Signal;HPM_P1;HPM_P2
2023/01/01 00:01:54;;;;;;;30.00;17.85;;;13.80;98.60;;;;;;5093237;28;20492;-90
2023/01/01 00:04:23;;;;;;;27.05;14.50;;;13.70;98.80;;;;;;5075832;28;20043;-91
2023/01/01 00:06:55;;;;;;;30.38;17.75;;;13.70;98.90;;;;;;5092053;28;20040;-90
2023/01/01 00:12:24;;;;;;;29.63;17.35;;;13.60;99.20;;;;;;5089235;28;20047;-89
2023/01/01 00:15:08;;;;;;;27.80;14.57;;;13.60;99.60;;;;;;5093498;28;20034;-89
2023/01/01 00:17:33;;;;;;;30.52;17.35;;;13.50;99.60;;;;;;5092656;28;20055;-89
2023/01/01 00:20:17;;;;;;;28.90;18.75;;;13.50;99.90;;;;;;5074662;28;20040;-90
2023/01/01 00:22:46;;;;;;;32.97;20.33;;;13.50;99.90;;;;;;5066293;28;20063;-89
2023/01/01 00:25:13;;;;;;;30.40;20.70;;;13.40;99.90;;;;;;5073779;28;20044;-89
2023/01/01 00:27:40;;;;;;;33.83;21.63;;;13.40;99.90;;;;;;5072977;28;20028;-89
2023/01/01 00:30:07;;;;;;;32.20;22.23;;;13.40;99.90;;;;;;5054098;28;20052;-89
2023/01/01 00:32:51;;;;;;;36.55;23.75;;;13.40;99.90;;;;;;5103271;23;20101;-89
2023/01/01 00:35:17;;;;;;;38.35;23.13;;;13.30;99.90;;;;;;5095824;28;20614;-89
2023/01/01 00:37:58;;;;;;;39.08;25.65;;;13.30;99.90;;;;;;5094739;28;20115;-89
2023/01/01 00:40:26;;;;;;;50.20;29.65;;;13.30;99.90;;;;;;5098042;28;20063;-89
2023/01/01 00:43:00;;;;;;;46.45;33.83;;;13.30;99.90;;;;;;5094985;28;20040;-89
2023/01/01 00:45:26;;;;;;;41.35;27.67;;;13.30;99.90;;;;;;5095553;28;20426;-88
2023/01/01 00:47:58;;;;;;;39.00;22.50;;;13.30;99.90;;;;;;5095307;28;20039;-89
2023/01/01 00:50:37;;;;;;;33.58;19.73;;;13.30;99.90;;;;;;5111965;28;20507;-89
2023/01/01 00:53:05;;;;;;;31.50;22.58;;;13.20;99.90;;;;;;5110825;28;20495;-89
2023/01/01 00:55:34;;;;;;;34.47;19.83;;;13.30;99.90;;;;;;5113904;28;20046;-88
2023/01/01 00:58:02;;;;;;;32.33;19.40;;;13.30;99.90;;;;;;5099109;28;20040;-89
2023/01/01 01:00:28;;;;;;;31.08;18.65;;;13.30;99.90;;;;;;5095127;28;20036;-89
2023/01/01 01:02:53;;;;;;;26.70;17.10;;;13.30;99.90;;;;;;5107051;28;20036;-89
2023/01/01 01:05:25;;;;;;;30.40;17.83;;;13.30;99.90;;;;;;5112495;28;20491;-89
2023/01/01 01:08:05;;;;;;;28.35;16.38;;;13.30;99.90;;;;;;5094982;28;20079;-90
2023/01/01 01:10:42;;;;;;;31.25;17.75;;;13.40;99.90;;;;;;5095304;28;20122;-89
2023/01/01 01:13:08;;;;;;;35.42;18.58;;;13.40;99.90;;;;;;5094876;28;20039;-89
2023/01/01 01:15:33;;;;;;;28.65;18.67;;;13.40;99.90;;;;;;5113629;28;20042;-89
2023/01/01 01:18:02;;;;;;;36.38;18.98;;;13.40;99.80;;;;;;5112101;28;20501;-89
2023/01/01 01:20:32;;;;;;;30.52;18.38;;;13.40;99.70;;;;;;5113230;28;20040;-89
2023/01/01 01:22:58;;;;;;;34.45;19.38;;;13.40;99.70;;;;;;5094743;28;20046;-89
2023/01/01 01:25:33;;;;;;;31.92;21.67;;;13.40;99.70;;;;;;5112503;28;20031;-89
2023/01/01 01:28:02;;;;;;;32.55;21.27;;;13.40;99.70;;;;;;5113132;28;20122;-89
2023/01/01 01:30:42;;;;;;;36.88;21.63;;;13.40;99.90;;;;;;5095002;28;20043;-89
2023/01/01 01:33:25;;;;;;;37.35;23.13;;;13.40;99.90;;;;;;5111389;28;20048;-89
2023/01/01 01:35:59;;;;;;;34.90;23.55;;;13.40;99.90;;;;;;5113370;28;20047;-89
2023/01/01 01:38:24;;;;;;;39.85;22.02;;;13.40;99.90;;;;;;5094711;28;20044;-88
2023/01/01 01:40:53;;;;;;;36.92;24.15;;;13.30;99.90;;;;;;5112571;28;20039;-88
2023/01/01 01:43:31;;;;;;;35.85;22.95;;;13.40;99.90;;;;;;5111711;28;20052;-89
2023/01/01 01:46:00;;;;;;;37.38;22.92;;;13.30;99.90;;;;;;5112688;28;20043;-88
2023/01/01 01:48:27;;;;;;;34.50;23.20;;;13.30;99.90;;;;;;5094096;28;20047;-89
2023/01/01 01:50:56;;;;;;;38.05;24.00;;;13.30;99.90;;;;;;5095224;28;20059;-89
2023/01/01 01:53:23;;;;;;;38.75;23.58;;;13.30;99.90;;;;;;5093855;28;20118;-89
2023/01/01 01:56:13;;;;;;;37.10;22.90;;;13.30;99.90;;;;;;5094987;28;20047;-89
2023/01/01 01:58:41;;;;;;;36.35;22.10;;;13.30;99.90;;;;;;5112875;28;20039;-89
2023/01/01 02:04:22;;;;;;;35.72;22.02;;;13.20;99.90;;;;;;5080391;28;20047;-88
2023/01/01 02:06:50;;;;;;;34.40;20.40;;;13.20;99.90;;;;;;5112815;28;20047;-89
2023/01/01 02:09:19;;;;;;;38.92;20.98;;;13.20;99.90;;;;;;5101167;28;20043;-88
2023/01/01 02:11:50;;;;;;;34.63;20.95;;;13.20;99.90;;;;;;5111829;28;20447;-89
2023/01/01 02:14:16;;;;;;;31.52;19.70;;;13.20;99.90;;;;;;5092949;28;20054;-89
2023/01/01 02:17:33;;;;;;;31.65;19.67;;;13.30;99.90;;;;;;5112435;28;20043;-88
2023/01/01 02:20:32;;;;;;;33.80;20.08;;;13.30;99.90;;;;;;5112757;28;20357;-89
2023/01/01 02:23:22;;;;;;;28.48;18.83;;;13.20;99.90;;;;;;5112597;28;20064;-89
2023/01/01 02:26:16;;;;;;;31.85;17.25;;;13.20;99.90;;;;;;5094683;28;20044;-89
2023/01/01 02:28:53;;;;;;;30.38;17.48;;;13.20;99.90;;;;;;5111535;28;20050;-89
2023/01/01 02:31:54;;;;;;;33.35;16.50;;;13.30;99.90;;;;;;5077385;22;20576;-89
2023/01/01 02:34:28;;;;;;;27.63;14.88;;;13.30;99.90;;;;;;5041848;28;20492;-88
2023/01/01 02:37:15;;;;;;;23.55;15.18;;;13.30;99.90;;;;;;5051511;28;20044;-89
2023/01/01 02:39:50;;;;;;;26.15;14.35;;;13.30;99.80;;;;;;5034284;28;20037;-88
2023/01/01 02:42:26;;;;;;;27.42;13.40;;;13.30;99.90;;;;;;5034870;28;20091;-88
2023/01/01 02:45:10;;;;;;;25.88;13.32;;;13.30;99.80;;;;;;5055795;28;20052;-89
2023/01/01 02:47:36;;;;;;;22.80;12.65;;;13.30;99.50;;;;;;5060562;28;20120;-89
2023/01/01 02:50:21;;;;;;;20.20;12.52;;;13.40;99.70;;;;;;5056884;28;20135;-89
2023/01/01 02:53:28;;;;;;;24.92;12.05;;;13.30;99.50;;;;;;5058174;28;20493;-89
2023/01/01 02:56:02;;;;;;;21.67;10.20;;;13.30;99.40;;;;;;5075485;28;20067;-89
2023/01/01 03:02:12;;;;;;;25.40;10.07;;;13.30;99.20;;;;;;5055132;28;20396;-88
2023/01/01 03:04:59;;;;;;;19.75;8.15;;;13.30;99.20;;;;;;5036532;28;20048;-89
2023/01/01 03:08:04;;;;;;;20.17;7.82;;;13.30;99.10;;;;;;5036989;28;20396;-88
2023/01/01 03:10:30;;;;;;;19.67;7.63;;;13.30;98.90;;;;;;5017783;28;20091;-89
2023/01/01 03:13:43;;;;;;;23.00;8.10;;;13.40;99.10;;;;;;5036703;28;20099;-89
2023/01/01 03:16:30;;;;;;;17.20;6.53;;;13.40;98.80;;;;;;5036761;28;20041;-88
2023/01/01 03:19:25;;;;;;;17.08;6.15;;;13.40;99.00;;;;;;5052606;28;20492;-88
2023/01/01 03:22:03;;;;;;;13.80;5.43;;;13.40;98.80;;;;;;5040514;28;20455;-88
2023/01/01 03:24:35;;;;;;;17.70;5.50;;;13.40;98.70;;;;;;5053933;28;20087;-88
2023/01/01 03:27:22;;;;;;;15.40;4.80;;;13.40;98.70;;;;;;5054726;28;20039;-89
2023/01/01 03:29:59;;;;;;;12.55;4.57;;;13.50;98.50;;;;;;5054873;28;20107;-88
2023/01/01 03:33:16;;;;;;;11.93;4.10;;;13.50;98.60;;;;;;5033252;28;20077;-89
2023/01/01 03:36:05;;;;;;;13.38;4.32;;;13.50;98.50;;;;;;5000298;28;20055;-89
2023/01/01 03:38:40;;;;;;;14.73;4.18;;;13.50;98.60;;;;;;5015744;28;20041;-88
2023/01/01 03:41:45;;;;;;;16.08;4.63;;;13.50;98.70;;;;;;5017150;28;20049;-89
2023/01/01 03:44:26;;;;;;;13.60;3.97;;;13.50;98.70;;;;;;4994915;28;20132;-89
2023/01/01 03:47:03;;;;;;;13.38;3.95;;;13.50;98.90;;;;;;5033732;28;20607;-88
2023/01/01 03:49:45;;;;;;;14.45;4.50;;;13.50;98.90;;;;;;5034456;28;20486;-87
2023/01/01 03:52:17;;;;;;;12.25;4.10;;;13.50;98.90;;;;;;5016319;28;20084;-88
2023/01/01 03:54:52;;;;;;;11.18;3.92;;;13.50;98.80;;;;;;5016181;28;20033;-89
2023/01/01 03:57:43;;;;;;;15.85;4.22;;;13.50;98.70;;;;;;5017876;28;20053;-89
2023/01/01 04:00:32;;;;;;;16.17;4.40;;;13.50;98.60;;;;;;5015227;28;20050;-88
2023/01/01 04:03:22;;;;;;;15.55;4.03;;;13.50;98.70;;;;;;5033884;28;20055;-88
2023/01/01 04:05:48;;;;;;;12.45;3.30;;;13.50;98.60;;;;;;5016635;28;20401;-89
2023/01/01 04:08:23;;;;;;;12.02;3.42;;;13.50;98.70;;;;;;5033192;28;20046;-88
2023/01/01 04:12:00;;;;;;;12.80;3.35;;;13.50;98.60;;;;;;5034044;28;20048;-88
2023/01/01 04:14:00;;;;;;;12.10;3.55;;;13.50;98.70;;;;;;5031890;28;20085;-88
2023/01/01 04:16:25;;;;;;;15.27;3.85;;;13.50;98.80;;;;;;5015630;28;20083;-88
2023/01/01 04:18:51;;;;;;;14.43;3.97;;;13.40;98.80;;;;;;5033803;28;20049;-87
2023/01/01 04:21:17;;;;;;;17.10;4.20;;;13.50;99.10;;;;;;5014729;28;20041;-88
2023/01/01 04:23:52;;;;;;;17.33;4.00;;;13.50;99.30;;;;;;5015829;28;20045;-88
2023/01/01 04:26:29;;;;;;;15.48;3.97;;;13.40;99.40;;;;;;5015770;28;20128;-89
2023/01/01 04:29:04;;;;;;;12.32;4.25;;;13.40;99.50;;;;;;5015292;28;20057;-88
2023/01/01 04:31:30;;;;;;;16.35;4.07;;;13.30;99.50;;;;;;5044762;28;20129;-88
2023/01/01 04:34:05;;;;;;;12.52;3.92;;;13.30;99.70;;;;;;5052487;28;20088;-89
2023/01/01 04:36:34;;;;;;;15.23;3.85;;;13.30;99.90;;;;;;5048261;28;20375;-89
2023/01/01 04:39:00;;;;;;;12.15;3.65;;;13.30;99.90;;;;;;5034718;28;20097;-89
2023/01/01 04:41:32;;;;;;;11.10;3.08;;;13.20;99.90;;;;;;5035311;28;20045;-88
2023/01/01 04:44:01;;;;;;;15.98;3.00;;;13.20;99.90;;;;;;5051903;28;20416;-88
2023/01/01 04:46:26;;;;;;;13.60;3.13;;;13.20;99.90;;;;;;5052927;28;20037;-89
2023/01/01 04:48:56;;;;;;;9.80;2.85;;;13.10;99.90;;;;;;5035160;28;20162;-88
2023/01/01 04:51:21;;;;;;;12.75;3.60;;;13.10;99.90;;;;;;5035365;28;20053;-88
2023/01/01 04:53:58;;;;;;;12.90;2.92;;;13.10;99.90;;;;;;5053491;28;20063;-88
2023/01/01 04:56:24;;;;;;;11.15;2.85;;;13.10;99.90;;;;;;5052617;28;20119;-88
2023/01/01 04:59:16;;;;;;;17.95;3.25;;;13.10;99.90;;;;;;5053049;28;20484;-89
2023/01/01 05:01:42;;;;;;;10.95;2.85;;;13.10;99.70;;;;;;5047059;28;20500;-88
2023/01/01 05:04:11;;;;;;;10.50;2.97;;;13.00;99.90;;;;;;5033723;28;20052;-88
2023/01/01 05:06:37;;;;;;;15.15;2.95;;;13.10;99.90;;;;;;5031243;28;20111;-88
2023/01/01 05:09:03;;;;;;;13.30;3.10;;;13.10;99.90;;;;;;5050385;28;20473;-87
2023/01/01 05:11:29;;;;;;;11.05;2.83;;;13.10;99.90;;;;;;5051269;28;20041;-89
2023/01/01 05:13:59;;;;;;;14.52;3.17;;;13.00;99.90;;;;;;5053098;28;20040;-88
2023/01/01 05:16:28;;;;;;;13.10;2.78;;;13.00;99.90;;;;;;5034740;28;20128;-88
2023/01/01 05:18:54;;;;;;;12.70;2.60;;;13.00;99.90;;;;;;5034418;28;20041;-88
2023/01/01 05:21:22;;;;;;;9.70;2.58;;;12.90;99.90;;;;;;5052654;28;20420;-88
2023/01/01 05:23:48;;;;;;;11.35;2.65;;;13.00;99.90;;;;;;5034540;28;20538;-88
2023/01/01 05:26:19;;;;;;;16.10;2.55;;;13.00;99.90;;;;;;5051336;28;20045;-88
2023/01/01 05:28:46;;;;;;;9.90;2.28;;;12.90;99.80;;;;;;5052573;28;20044;-88
2023/01/01 05:31:14;;;;;;;11.85;2.38;;;13.00;99.70;;;;;;5051636;28;20045;-88
2023/01/01 05:33:40;;;;;;;8.60;2.15;;;12.90;99.50;;;;;;5034682;28;20041;-88
2023/01/01 05:36:08;;;;;;;11.38;2.28;;;12.90;99.30;;;;;;5024305;28;20091;-88
2023/01/01 05:38:34;;;;;;;7.85;2.00;;;12.90;99.10;;;;;;5030249;28;20037;-89
2023/01/01 05:41:08;;;;;;;13.90;2.50;;;13.00;99.10;;;;;;5032732;28;20056;-89
2023/01/01 05:43:35;;;;;;;9.23;2.30;;;13.00;98.90;;;;;;5032973;28;20116;-89
2023/01/01 05:46:12;;;;;;;12.15;1.90;;;12.90;99.00;;;;;;5056409;28;20052;-88
2023/01/01 05:48:38;;;;;;;11.35;2.30;;;12.90;98.90;;;;;;5017795;28;20508;-88
2023/01/01 05:51:05;;;;;;;8.65;1.83;;;12.90;98.90;;;;;;5005169;28;20079;-89
2023/01/01 05:53:31;;;;;;;11.20;2.42;;;12.90;98.80;;;;;;5048711;28;20523;-89
2023/01/01 05:55:58;;;;;;;12.20;2.20;;;12.90;98.80;;;;;;5016054;28;20090;-88
2023/01/01 05:58:24;;;;;;;7.88;1.80;;;12.90;98.70;;;;;;5024205;28;20042;-88
2023/01/01 06:00:50;;;;;;;13.88;1.98;;;12.90;98.70;;;;;;5018158;28;20485;-88
2023/01/01 06:03:16;;;;;;;6.85;1.65;;;12.90;98.50;;;;;;5055960;28;20037;-88
2023/01/01 06:05:42;;;;;;;11.30;2.13;;;12.90;98.90;;;;;;5026772;28;20554;-87
2023/01/01 06:08:07;;;;;;;10.27;1.77;;;12.90;98.50;;;;;;5014574;28;20401;-88
2023/01/01 06:10:33;;;;;;;9.07;1.70;;;12.80;98.20;;;;;;5032738;28;20033;-88
2023/01/01 06:12:58;;;;;;;8.00;1.70;;;12.80;98.10;;;;;;5015243;28;20049;-89
2023/01/01 06:15:25;;;;;;;7.70;1.63;;;12.80;97.90;;;;;;5026150;28;20056;-88
2023/01/01 06:17:51;;;;;;;5.53;1.13;;;12.80;97.90;;;;;;5034778;28;20037;-87
2023/01/01 06:20:17;;;;;;;5.88;1.27;;;12.70;97.70;;;;;;5027705;28;20052;-88
2023/01/01 06:22:42;;;;;;;6.65;1.42;;;12.70;97.70;;;;;;5018233;28;20038;-88
2023/01/01 06:25:08;;;;;;;6.50;1.35;;;12.80;97.60;;;;;;5022097;28;20049;-89
2023/01/01 06:27:35;;;;;;;8.60;1.33;;;12.70;97.30;;;;;;5027979;28;20041;-89
2023/01/01 06:30:02;;;;;;;9.20;1.20;;;12.70;97.30;;;;;;5036070;28;20125;-89
2023/01/01 06:32:27;;;;;;;4.05;1.10;;;12.70;97.20;;;;;;5035891;28;20076;-88
2023/01/01 06:34:53;;;;;;;10.85;1.77;;;12.70;97.10;;;;;;5034561;28;20501;-88
2023/01/01 06:37:19;;;;;;;10.65;1.55;;;12.70;97.00;;;;;;5017661;28;20045;-89
2023/01/01 06:39:45;;;;;;;11.10;1.40;;;12.60;96.90;;;;;;5016121;28;20041;-90
2023/01/01 06:42:11;;;;;;;7.60;1.15;;;12.60;96.90;;;;;;5017065;28;20038;-89
2023/01/01 06:44:36;;;;;;;10.10;1.30;;;12.60;96.90;;;;;;5035489;28;20099;-90
2023/01/01 06:47:02;;;;;;;9.80;1.70;;;12.60;96.80;;;;;;5035811;28;20416;-90
2023/01/01 06:49:27;;;;;;;5.72;1.25;;;12.50;96.80;;;;;;5035272;28;20163;-89
2023/01/01 06:51:53;;;;;;;10.20;1.70;;;12.50;96.80;;;;;;5017916;28;20053;-89
2023/01/01 06:54:19;;;;;;;10.05;1.73;;;12.50;96.70;;;;;;5017858;28;20045;-89
2023/01/01 06:56:48;;;;;;;10.82;2.03;;;12.50;96.80;;;;;;5035630;28;20056;-89
2023/01/01 06:59:15;;;;;;;12.05;2.05;;;12.50;96.80;;;;;;5034351;28;20128;-89
2023/01/01 07:01:40;;;;;;;10.43;1.80;;;12.50;96.80;;;;;;5030520;28;20429;-89
2023/01/01 07:04:10;;;;;;;8.60;1.48;;;12.50;96.70;;;;;;5020463;28;20045;-88
2023/01/01 07:06:38;;;;;;;9.88;1.63;;;12.40;96.80;;;;;;5020221;28;20045;-89
2023/01/01 07:09:05;;;;;;;11.40;1.80;;;12.40;96.80;;;;;;5017105;28;20050;-90
2023/01/01 07:11:31;;;;;;;11.32;1.67;;;12.40;96.90;;;;;;5017224;28;20045;-89
2023/01/01 07:13:57;;;;;;;10.05;1.80;;;12.40;97.00;;;;;;5035399;28;20041;-88
2023/01/01 07:16:23;;;;;;;11.88;1.90;;;12.30;97.00;;;;;;5020355;28;20128;-88
2023/01/01 07:18:49;;;;;;;12.23;1.88;;;12.40;97.10;;;;;;5034601;28;20037;-88
2023/01/01 07:21:27;;;;;;;14.07;1.95;;;12.40;97.10;;;;;;5017988;28;20041;-89
2023/01/01 07:23:55;;;;;;;14.18;2.20;;;12.30;97.10;;;;;;5018614;28;20056;-89
2023/01/01 07:26:24;;;;;;;12.55;2.00;;;12.30;97.20;;;;;;5028212;28;20048;-89
2023/01/01 07:28:51;;;;;;;11.02;1.90;;;12.30;97.20;;;;;;5018651;28;20037;-89
2023/01/01 07:31:16;;;;;;;11.20;2.10;;;12.30;97.10;;;;;;5032830;28;20049;-89
2023/01/01 07:33:42;;;;;;;11.73;1.92;;;12.30;97.10;;;;;;5034737;28;20096;-89
2023/01/01 07:36:08;;;;;;;16.05;2.85;;;12.30;97.20;;;;;;5016775;28;20041;-89
2023/01/01 07:38:33;;;;;;;14.23;2.35;;;12.20;97.10;;;;;;5017518;28;20128;-88
2023/01/01 07:40:59;;;;;;;11.55;2.10;;;12.20;97.10;;;;;;5017334;28;20048;-89
2023/01/01 07:43:24;;;;;;;14.10;2.47;;;12.30;97.20;;;;;;5015861;28;20041;-89
2023/01/01 07:45:50;;;;;;;14.55;2.28;;;12.20;97.20;;;;;;5032504;28;20064;-89
2023/01/01 07:48:16;;;;;;;11.60;1.95;;;12.20;97.30;;;;;;5032856;28;20041;-89
2023/01/01 07:50:42;;;;;;;12.82;2.13;;;12.20;97.40;;;;;;5034921;28;20499;-89
2023/01/01 07:53:08;;;;;;;11.65;2.38;;;12.20;97.40;;;;;;5033659;28;20049;-89
2023/01/01 07:55:34;;;;;;;12.20;1.98;;;12.20;97.40;;;;;;5017120;28;20045;-90
2023/01/01 07:58:00;;;;;;;14.68;2.42;;;12.10;97.40;;;;;;5001407;28;20074;-89
2023/01/01 08:00:25;;;;;;;12.40;1.98;;;12.20;97.40;;;;;;5018768;28;20385;-89
2023/01/01 08:02:51;;;;;;;14.73;2.47;;;12.20;97.50;;;;;;5002613;28;20104;-89
2023/01/01 08:05:17;;;;;;;16.27;2.65;;;12.10;97.50;;;;;;5013725;28;20038;-89
2023/01/01 08:07:50;;;;;;;11.85;2.35;;;12.10;97.50;;;;;;5011271;28;20049;-89
2023/01/01 08:10:17;;;;;;;11.90;2.20;;;12.10;97.50;;;;;;5016518;28;20048;-89
2023/01/01 08:12:43;;;;;;;15.10;2.60;;;12.10;97.70;;;;;;5016464;28;20476;-88
2023/01/01 08:15:10;;;;;;;12.90;2.13;;;12.10;97.60;;;;;;5017646;28;20084;-85
2023/01/01 08:17:36;;;;;;;12.40;2.40;;;12.10;97.80;;;;;;5001927;28;20041;-85
2023/01/01 08:20:02;;;;;;;10.85;2.17;;;12.10;97.70;;;;;;5029873;28;20041;-89
2023/01/01 08:22:28;;;;;;;17.48;2.88;;;12.10;97.70;;;;;;5016234;28;20489;-88
2023/01/01 08:24:53;;;;;;;14.75;2.45;;;12.00;97.80;;;;;;5034108;28;20039;-88
2023/01/01 08:27:19;;;;;;;15.70;3.03;;;12.00;97.80;;;;;;5015320;28;20095;-88
2023/01/01 08:29:45;;;;;;;15.48;2.30;;;12.00;97.80;;;;;;5016585;28;20042;-87
2023/01/01 08:32:11;;;;;;;13.77;2.85;;;12.00;97.80;;;;;;5033512;28;20063;-88
2023/01/01 08:34:37;;;;;;;17.35;2.50;;;12.00;97.90;;;;;;5052832;28;20040;-87
2023/01/01 08:37:03;;;;;;;16.05;2.53;;;12.00;97.90;;;;;;5053370;28;20044;-88
2023/01/01 08:39:29;;;;;;;17.30;3.20;;;12.00;98.30;;;;;;5039435;28;20032;-88
2023/01/01 08:41:55;;;;;;;19.63;2.60;;;12.00;98.10;;;;;;5035124;28;20156;-88
2023/01/01 08:44:20;;;;;;;14.38;2.42;;;12.00;98.10;;;;;;5039993;28;20040;-88
2023/01/01 08:46:46;;;;;;;13.77;2.53;;;11.90;98.20;;;;;;5069243;28;20048;-88
2023/01/01 08:49:11;;;;;;;16.70;2.63;;;11.90;98.20;;;;;;5034920;28;20132;-88
2023/01/01 08:51:37;;;;;;;18.77;2.63;;;11.90;98.30;;;;;;5034444;28;20103;-89
2023/01/01 08:54:03;;;;;;;17.70;2.70;;;11.90;98.40;;;;;;5051694;28;20079;-88
2023/01/01 08:56:28;;;;;;;18.83;3.03;;;11.90;98.50;;;;;;5033455;28;20095;-89
2023/01/01 08:58:54;;;;;;;15.82;2.35;;;11.90;98.50;;;;;;5035644;28;20047;-88
2023/01/01 09:01:20;;;;;;;21.02;2.95;;;11.90;98.50;;;;;;5035148;28;20055;-89
2023/01/01 09:03:47;;;;;;;17.30;2.70;;;11.80;98.50;;;;;;5052955;28;20072;-90
2023/01/01 09:06:13;;;;;;;18.45;2.75;;;11.90;98.60;;;;;;5053131;28;20040;-88
2023/01/01 09:08:39;;;;;;;16.10;2.78;;;11.80;98.60;;;;;;5035377;28;20484;-89
2023/01/01 09:11:05;;;;;;;17.90;2.67;;;11.80;98.60;;;;;;5034857;28;20052;-89
2023/01/01 09:13:33;;;;;;;21.83;3.30;;;11.80;98.70;;;;;;5034875;28;20072;-88
2023/01/01 09:15:59;;;;;;;16.92;2.53;;;11.80;98.70;;;;;;5035369;28;20060;-88
2023/01/01 09:18:27;;;;;;;13.82;2.70;;;11.80;98.80;;;;;;5035007;28;20040;-88
2023/01/01 09:20:52;;;;;;;13.82;2.45;;;11.80;98.80;;;;;;5046273;28;20114;-89
2023/01/01 09:23:18;;;;;;;19.42;2.53;;;11.80;98.80;;;;;;5068861;28;20045;-88
2023/01/01 09:25:44;;;;;;;16.15;2.70;;;11.80;98.90;;;;;;5035824;28;20037;-87
2023/01/01 09:28:13;;;;;;;14.98;2.67;;;11.80;98.90;;;;;;5049409;28;20056;-87
2023/01/01 09:30:39;;;;;;;16.70;2.88;;;11.80;98.90;;;;;;5046945;28;20595;-87
2023/01/01 09:33:07;;;;;;;18.63;2.67;;;11.80;99.00;;;;;;5045270;28;20049;-88
2023/01/01 09:35:33;;;;;;;13.50;2.90;;;11.80;99.00;;;;;;5027261;28;20049;-87
2023/01/01 09:37:58;;;;;;;16.40;2.67;;;11.80;99.10;;;;;;5026359;28;20069;-87
2023/01/01 09:40:40;;;;;;;19.52;2.80;;;11.80;99.00;;;;;;5022457;28;20489;-88
2023/01/01 09:43:24;;;;;;;16.83;2.65;;;11.80;99.00;;;;;;5029376;28;20049;-88
2023/01/01 09:46:05;;;;;;;20.42;2.90;;;11.80;98.90;;;;;;5060574;28;20489;-87
2023/01/01 09:48:41;;;;;;;16.05;2.85;;;11.70;98.90;;;;;;5059170;28;20045;-88
2023/01/01 09:51:35;;;;;;;16.75;2.53;;;11.80;99.10;;;;;;5049590;28;20548;-87
2023/01/01 09:54:28;;;;;;;19.98;2.72;;;11.70;99.00;;;;;;5029796;28;20497;-88
2023/01/01 10:00:22;;;;;;;17.70;2.65;;;11.70;99.10;;;;;;5019435;28;20484;-88
2023/01/01 10:03:29;;;;;;;18.67;3.15;;;11.80;99.10;;;;;;5038489;28;20045;-87
2023/01/01 10:06:08;;;;;;;12.77;2.65;;;11.70;98.90;;;;;;5004228;28;20054;-87
2023/01/01 10:08:43;;;;;;;15.25;2.72;;;11.80;99.10;;;;;;5029297;28;20038;-88
2023/01/01 10:11:44;;;;;;;18.67;3.15;;;11.70;99.10;;;;;;5017227;28;20049;-88
2023/01/01 10:14:37;;;;;;;13.70;2.67;;;11.70;98.90;;;;;;5032452;28;20528;-88
2023/01/01 10:17:30;;;;;;;17.25;2.70;;;11.70;98.90;;;;;;5035634;28;20092;-87
2023/01/01 10:20:30;;;;;;;14.88;2.53;;;11.70;98.80;;;;;;5029383;28;20041;-88
2023/01/01 10:23:26;;;;;;;17.90;2.53;;;11.80;99.00;;;;;;5016806;28;20053;-88
2023/01/01 10:26:00;;;;;;;15.10;2.58;;;11.70;98.90;;;;;;5019975;28;20100;-88
2023/01/01 10:28:36;;;;;;;14.15;2.55;;;11.70;99.00;;;;;;5033258;28;20046;-88
2023/01/01 10:31:17;;;;;;;16.00;2.70;;;11.70;98.90;;;;;;5043665;28;20053;-88
2023/01/01 10:33:51;;;;;;;12.50;2.47;;;11.80;98.70;;;;;;5057292;28;20041;-87
2023/01/01 10:36:18;;;;;;;12.75;2.60;;;11.70;98.80;;;;;;5026198;28;20456;-87
2023/01/01 10:38:48;;;;;;;12.15;2.20;;;11.70;98.80;;;;;;5054422;28;20068;-88
2023/01/01 10:41:52;;;;;;;11.70;2.17;;;11.70;98.70;;;;;;5053637;28;20037;-87
2023/01/01 10:44:29;;;;;;;17.15;2.63;;;11.70;98.30;;;;;;5039299;28;20111;-87
2023/01/01 10:47:04;;;;;;;15.45;2.20;;;11.70;98.50;;;;;;5037944;28;20498;-87
2023/01/01 10:49:29;;;;;;;13.55;2.65;;;11.80;98.60;;;;;;5054441;28;20396;-87
2023/01/01 10:52:18;;;;;;;13.70;2.47;;;11.80;98.50;;;;;;5042921;28;20045;-88
2023/01/01 10:54:44;;;;;;;11.23;1.80;;;11.80;98.50;;;;;;5037170;28;20083;-87
2023/01/01 10:57:29;;;;;;;20.08;2.58;;;11.80;98.50;;;;;;5036213;28;20453;-88
2023/01/01 11:00:22;;;;;;;16.98;2.75;;;11.80;98.60;;;;;;5054603;28;20124;-89
2023/01/01 11:03:27;;;;;;;11.65;2.17;;;11.80;98.20;;;;;;5054005;28;20563;-90
2023/01/01 11:06:42;;;;;;;16.08;2.58;;;11.80;98.10;;;;;;5054205;28;20551;-90
2023/01/01 11:09:27;;;;;;;14.93;2.33;;;11.70;98.10;;;;;;5025171;28;20538;-89
2023/01/01 11:12:39;;;;;;;13.43;2.10;;;11.80;98.10;;;;;;5036306;28;20049;-87
2023/01/01 11:15:22;;;;;;;15.15;2.40;;;11.70;97.90;;;;;;5045802;28;20033;-88
2023/01/01 11:18:15;;;;;;;15.98;2.25;;;11.80;98.00;;;;;;5030923;28;20052;-85
2023/01/01 11:20:54;;;;;;;17.40;2.58;;;11.80;97.90;;;;;;5046923;28;20056;-85
2023/01/01 11:23:51;;;;;;;17.17;2.33;;;11.80;98.00;;;;;;5029998;28;20091;-86
2023/01/01 11:26:17;;;;;;;10.88;2.15;;;11.80;98.00;;;;;;5037699;28;20040;-87
2023/01/01 11:28:59;;;;;;;15.32;2.22;;;11.80;98.00;;;;;;5037726;28;20044;-88
2023/01/01 11:31:38;;;;;;;16.30;2.53;;;11.80;97.90;;;;;;5035155;28;20049;-88
2023/01/01 11:34:26;;;;;;;16.90;2.30;;;11.80;97.90;;;;;;5050160;28;20489;-88
2023/01/01 11:37:18;;;;;;;15.27;2.72;;;11.70;97.90;;;;;;5029116;28;20076;-89
2023/01/01 11:40:11;;;;;;;14.35;2.40;;;11.80;97.70;;;;;;5022275;28;20052;-89
2023/01/01 11:42:53;;;;;;;15.80;3.13;;;11.80;97.90;;;;;;5045315;28;20053;-88
2023/01/01 11:45:26;;;;;;;13.40;2.17;;;11.80;97.90;;;;;;5030349;28;20055;-88
2023/01/01 11:50:59;;;;;;;17.30;2.13;;;11.80;97.90;;;;;;5026272;28;19920;-86
2023/01/01 11:53:43;;;;;;;15.77;2.40;;;11.80;98.00;;;;;;5037017;28;20048;-89
2023/01/01 11:56:16;;;;;;;17.55;2.40;;;11.80;97.90;;;;;;5050893;28;20049;-90
2023/01/01 11:59:32;;;;;;;20.40;2.70;;;11.80;98.00;;;;;;5052740;28;20037;-88
2023/01/01 12:02:03;;;;;;;18.23;2.70;;;11.90;97.90;;;;;;5018713;28;20044;-88
2023/01/01 12:04:54;;;;;;;15.73;2.47;;;11.90;98.00;;;;;;5045458;28;20045;-88
2023/01/01 12:07:37;;;;;;;14.00;2.03;;;11.90;97.90;;;;;;5049274;28;20037;-87
2023/01/01 12:10:32;;;;;;;14.98;2.33;;;12.00;98.00;;;;;;5040827;28;20131;-88
2023/01/01 12:13:21;;;;;;;16.70;2.70;;;12.00;97.90;;;;;;5033671;28;20068;-88
2023/01/01 12:16:09;;;;;;;14.25;2.25;;;12.10;98.00;;;;;;5044871;28;20033;-87
2023/01/01 12:19:01;;;;;;;13.82;2.30;;;12.10;97.80;;;;;;5049143;28;20046;-87
2023/01/01 12:21:28;;;;;;;19.00;2.50;;;12.20;97.80;;;;;;5048555;28;20564;-88
2023/01/01 12:23:56;;;;;;;19.02;2.38;;;12.20;98.20;;;;;;5050025;28;20044;-88
2023/01/01 12:26:40;;;;;;;15.60;2.78;;;12.20;97.70;;;;;;5030902;28;20495;-87
2023/01/01 12:29:42;;;;;;;18.35;2.80;;;12.20;97.60;;;;;;5034875;28;20068;-88
2023/01/01 12:32:46;;;;;;;19.55;2.78;;;12.20;97.60;;;;;;5030165;28;20096;-88
2023/01/01 12:35:53;;;;;;;17.10;2.65;;;12.20;97.70;;;;;;5048206;28;20057;-89
2023/01/01 12:38:50;;;;;;;17.58;2.88;;;12.20;97.70;;;;;;5022474;28;20049;-89
2023/01/01 12:41:24;;;;;;;14.65;2.70;;;12.20;97.80;;;;;;5020641;28;20071;-89
2023/01/01 12:44:27;;;;;;;18.42;2.97;;;12.20;98.00;;;;;;4996870;28;20393;-88
2023/01/01 12:47:05;;;;;;;19.25;2.88;;;12.20;97.90;;;;;;5016452;28;20049;-88
2023/01/01 12:50:03;;;;;;;14.50;2.30;;;12.20;98.00;;;;;;5033862;28;20041;-88
2023/01/01 12:52:48;;;;;;;17.58;2.88;;;12.20;97.80;;;;;;5030075;28;20048;-89
2023/01/01 12:55:51;;;;;;;13.63;2.75;;;12.20;97.80;;;;;;5017684;28;20135;-89
2023/01/01 12:58:27;;;;;;;16.30;2.57;;;12.20;97.80;;;;;;5034009;28;20076;-89
2023/01/01 13:01:38;;;;;;;15.02;2.42;;;12.20;97.90;;;;;;5015177;28;20053;-90
2023/01/01 13:04:11;;;;;;;13.52;2.20;;;12.20;97.70;;;;;;4962564;28;20086;-90
2023/01/01 13:07:05;;;;;;;15.18;2.60;;;12.20;98.00;;;;;;5012771;28;20041;-90
2023/01/01 13:09:38;;;;;;;;;;;12.20;97.90;;;;;;5003314;28;20488;-90
2023/01/01 13:12:09;;;;;;;14.98;2.50;;;12.10;97.90;;;;;;5016824;28;20346;-89
2023/01/01 13:14:40;;;;;;;14.85;2.50;;;12.20;98.10;;;;;;5015375;28;20041;-90
2023/01/01 13:17:39;;;;;;;16.17;2.88;;;12.10;98.40;;;;;;5015126;28;20048;-91
2023/01/01 13:20:34;;;;;;;16.38;2.50;;;12.20;97.80;;;;;;5016023;28;20034;-92
2023/01/01 13:23:00;;;;;;;16.20;2.75;;;12.20;98.00;;;;;;5006164;28;20131;-91
2023/01/01 13:25:26;;;;;;;12.85;2.70;;;12.20;98.00;;;;;;5019466;28;20176;-90
2023/01/01 13:28:03;;;;;;;17.02;2.80;;;12.20;98.00;;;;;;5016007;28;20037;-90
2023/01/01 13:30:38;;;;;;;12.20;2.30;;;12.20;98.10;;;;;;5016463;28;20393;-90
2023/01/01 13:33:32;;;;;;;13.10;2.55;;;12.20;98.20;;;;;;5015556;28;20091;-89